Wetterdaten: Woche 08.10.12 - 14.10.12 (KW41)
Datum Zeit Temp. Innen Temp. Aussen UV X Diff Temp. Feuchte Inne Feuchte Auss Sonnenschein Luftdruck Regen ab 0,1 Wind Sonnenschein T Regendauer Windben
08.10.2012 00:00 18,5 C 6,3 C 0,0 UV-I 0,0 C 54 % 94 % 0 % 1023,5 hPa 0,0 l/m 0,0 km/h (0 Bft) 0,00 h 0,00 h 0,0 km/h (0 Bft)
08.10.2012 01:00 18,3 C 5,4 C 0,0 UV-I 0,0 C 54 % 95 % 0 % 1023,5 hPa 0,0 l/m 0,0 km/h (0 Bft) 0,00 h 0,00 h 0,0 km/h (0 Bft)
08.10.2012 02:00 18,2 C 4,7 C 0,0 UV-I 0,0 C 53 % 95 % 0 % 1023,4 hPa 0,0 l/m 0,0 km/h (0 Bft) 0,00 h 0,00 h 0,0 km/h (0 Bft)
08.10.2012 03:00 18,1 C 4,2 C 0,0 UV-I 0,0 C 53 % 95 % 0 % 1023,3 hPa 0,0 l/m 0,0 km/h (0 Bft) 0,00 h 0,00 h 0,0 km/h (0 Bft)
08.10.2012 04:00 18,0 C 4,2 C 0,0 UV-I 0,0 C 53 % 96 % 0 % 1022,4 hPa 0,0 l/m 0,0 km/h (0 Bft) 0,00 h 0,00 h 0,0 km/h (0 Bft)
08.10.2012 05:00 17,9 C 3,9 C 0,0 UV-I 0,0 C 52 % 96 % 0 % 1022,0 hPa 0,0 l/m 0,0 km/h (0 Bft) 0,00 h 0,00 h 0,1 km/h (0 Bft)
08.10.2012 06:00 17,8 C 3,7 C 0,0 UV-I 0,0 C 52 % 97 % 0 % 1021,7 hPa 0,0 l/m 0,0 km/h (0 Bft) 0,00 h 0,00 h 0,0 km/h (0 Bft)
08.10.2012 07:00 17,7 C 3,8 C 0,0 UV-I 0,0 C 52 % 97 % 0 % 1021,6 hPa 0,0 l/m 0,1 km/h (0 Bft) 0,00 h 0,03 h 0,4 km/h (0 Bft)
08.10.2012 08:00 17,6 C 3,8 C 0,0 UV-I 0,0 C 52 % 97 % 0 % 1021,2 hPa 0,0 l/m 0,4 km/h (0 Bft) 0,00 h 0,03 h 1,2 km/h (1 Bft)
08.10.2012 09:00 17,6 C 5,0 C 0,1 UV-I 4,3 C 52 % 98 % 85 % 1020,9 hPa 0,0 l/m 2,7 km/h (1 Bft) 0,87 h 0,00 h 5,9 km/h (2 Bft)
08.10.2012 10:00 17,8 C 7,1 C 0,6 UV-I 6,6 C 53 % 98 % 100 % 1020,5 hPa 0,0 l/m 4,1 km/h (1 Bft) 1,00 h 0,00 h 6,2 km/h (2 Bft)
08.10.2012 11:00 18,0 C 9,4 C 1,1 UV-I 6,2 C 53 % 97 % 100 % 1020,0 hPa 0,0 l/m 3,9 km/h (1 Bft) 1,00 h 0,00 h 6,7 km/h (2 Bft)
08.10.2012 12:00 18,4 C 11,5 C 2,4 UV-I 6,1 C 53 % 93 % 100 % 1019,6 hPa 0,0 l/m 4,6 km/h (1 Bft) 1,00 h 0,00 h 7,5 km/h (2 Bft)
08.10.2012 13:00 19,5 C 13,8 C 3,5 UV-I 6,2 C 51 % 81 % 100 % 1019,2 hPa 0,0 l/m 7,3 km/h (2 Bft) 1,00 h 0,00 h 9,3 km/h (2 Bft)
08.10.2012 14:00 20,5 C 13,7 C 1,1 UV-I 2,6 C 49 % 74 % 73 % 1017,7 hPa 0,0 l/m 6,2 km/h (2 Bft) 0,37 h 0,00 h 9,0 km/h (2 Bft)
08.10.2012 15:00 20,5 C 13,9 C 0,8 UV-I 2,0 C 48 % 72 % 56 % 1016,6 hPa 0,0 l/m 5,5 km/h (1 Bft) 0,00 h 0,00 h 7,6 km/h (2 Bft)
08.10.2012 16:00 20,3 C 13,8 C 0,3 UV-I 1,1 C 48 % 70 % 31 % 1015,5 hPa 0,0 l/m 6,1 km/h (2 Bft) 0,00 h 0,00 h 8,2 km/h (2 Bft)
08.10.2012 17:00 19,7 C 13,4 C 0,0 UV-I 0,2 C 49 % 72 % 5 % 1014,6 hPa 0,0 l/m 3,9 km/h (1 Bft) 0,00 h 0,00 h 5,5 km/h (1 Bft)
08.10.2012 18:00 19,2 C 12,5 C 0,0 UV-I 0,0 C 50 % 75 % 0 % 1013,6 hPa 0,0 l/m 2,9 km/h (1 Bft) 0,00 h 0,00 h 4,2 km/h (1 Bft)
08.10.2012 19:00 18,9 C 11,8 C 0,0 UV-I 0,0 C 51 % 79 % 0 % 1012,8 hPa 0,0 l/m 4,0 km/h (1 Bft) 0,00 h 0,00 h 5,5 km/h (1 Bft)
08.10.2012 20:00 18,8 C 11,7 C 0,0 UV-I 0,0 C 52 % 81 % 0 % 1012,4 hPa 0,0 l/m 2,5 km/h (1 Bft) 0,00 h 0,00 h 4,0 km/h (1 Bft)
08.10.2012 21:00 18,6 C 11,4 C 0,0 UV-I 0,0 C 53 % 83 % 0 % 1012,0 hPa 0,0 l/m 1,3 km/h (1 Bft) 0,00 h 0,00 h 1,7 km/h (1 Bft)
08.10.2012 22:00 18,6 C 11,2 C 0,0 UV-I 0,0 C 53 % 84 % 0 % 1011,4 hPa 0,0 l/m 0,2 km/h (0 Bft) 0,00 h 0,00 h 0,0 km/h (0 Bft)
08.10.2012 23:00 18,6 C 11,1 C 0,0 UV-I 0,0 C 54 % 86 % 0 % 1011,0 hPa 0,0 l/m 0,5 km/h (0 Bft) 0,00 h 0,00 h 1,1 km/h (0 Bft)
09.10.2012 00:00 18,6 C 11,1 C 0,0 UV-I 0,0 C 54 % 87 % 0 % 1010,7 hPa 0,0 l/m 0,6 km/h (0 Bft) 0,00 h 0,00 h 0,4 km/h (0 Bft)
09.10.2012 01:00 18,6 C 10,9 C 0,0 UV-I 0,0 C 55 % 88 % 0 % 1010,1 hPa 0,0 l/m 0,1 km/h (0 Bft) 0,00 h 0,00 h 0,4 km/h (0 Bft)
09.10.2012 02:00 18,6 C 10,8 C 0,0 UV-I 0,0 C 55 % 90 % 0 % 1010,1 hPa 0,0 l/m 0,0 km/h (0 Bft) 0,00 h 0,00 h 0,0 km/h (0 Bft)
09.10.2012 03:00 18,6 C 10,6 C 0,0 UV-I 0,0 C 56 % 91 % 0 % 1010,0 hPa 0,0 l/m 0,0 km/h (0 Bft) 0,00 h 0,00 h 0,0 km/h (0 Bft)
09.10.2012 04:00 18,6 C 10,4 C 0,0 UV-I 0,0 C 56 % 92 % 0 % 1009,9 hPa 0,0 l/m 0,7 km/h (0 Bft) 0,00 h 0,00 h 1,0 km/h (0 Bft)
09.10.2012 05:00 18,6 C 10,1 C 0,0 UV-I 0,0 C 56 % 92 % 0 % 1010,2 hPa 0,0 l/m 1,3 km/h (1 Bft) 0,00 h 0,00 h 1,7 km/h (1 Bft)
09.10.2012 06:00 18,4 C 8,7 C 0,0 UV-I 0,0 C 56 % 92 % 0 % 1010,5 hPa 0,0 l/m 0,4 km/h (0 Bft) 0,00 h 0,00 h 1,0 km/h (0 Bft)
09.10.2012 07:00 18,3 C 7,5 C 0,0 UV-I 0,0 C 56 % 93 % 0 % 1011,4 hPa 0,0 l/m 0,3 km/h (0 Bft) 0,00 h 0,00 h 0,4 km/h (0 Bft)
09.10.2012 08:00 18,2 C 6,5 C 0,0 UV-I 0,0 C 55 % 94 % 0 % 1012,4 hPa 0,0 l/m 0,0 km/h (0 Bft) 0,00 h 0,07 h 0,0 km/h (0 Bft)
09.10.2012 09:00 18,2 C 7,4 C 0,0 UV-I 4,0 C 55 % 96 % 75 % 1013,4 hPa 0,0 l/m 1,5 km/h (1 Bft) 0,73 h 0,00 h 2,3 km/h (1 Bft)
09.10.2012 10:00 18,2 C 9,5 C 0,6 UV-I 7,2 C 55 % 94 % 100 % 1013,9 hPa 0,0 l/m 5,0 km/h (1 Bft) 1,00 h 0,00 h 8,6 km/h (2 Bft)
09.10.2012 11:00 18,5 C 11,3 C 0,9 UV-I 4,7 C 55 % 88 % 97 % 1014,5 hPa 0,0 l/m 8,1 km/h (2 Bft) 1,00 h 0,00 h 11,8 km/h (2 Bft)
09.10.2012 12:00 18,9 C 12,6 C 1,7 UV-I 5,9 C 54 % 82 % 96 % 1014,9 hPa 0,0 l/m 6,7 km/h (2 Bft) 0,80 h 0,00 h 10,7 km/h (2 Bft)
09.10.2012 13:00 19,3 C 13,1 C 1,5 UV-I 3,3 C 53 % 75 % 81 % 1015,0 hPa 0,0 l/m 5,4 km/h (1 Bft) 0,57 h 0,00 h 8,1 km/h (2 Bft)
09.10.2012 14:00 20,2 C 13,1 C 0,8 UV-I 2,7 C 51 % 69 % 69 % 1015,2 hPa 0,0 l/m 8,9 km/h (2 Bft) 0,30 h 0,00 h 11,6 km/h (2 Bft)
09.10.2012 15:00 20,7 C 13,3 C 0,9 UV-I 2,8 C 49 % 68 % 70 % 1015,1 hPa 0,0 l/m 7,3 km/h (2 Bft) 0,37 h 0,00 h 10,8 km/h (2 Bft)
09.10.2012 16:00 21,2 C 13,1 C 0,5 UV-I 2,2 C 48 % 66 % 58 % 1015,1 hPa 0,0 l/m 7,7 km/h (2 Bft) 0,33 h 0,00 h 9,8 km/h (2 Bft)
09.10.2012 17:00 21,4 C 12,6 C 0,1 UV-I 1,7 C 46 % 65 % 49 % 1015,4 hPa 0,0 l/m 4,3 km/h (1 Bft) 0,57 h 0,00 h 5,7 km/h (1 Bft)
09.10.2012 18:00 20,5 C 11,9 C 0,0 UV-I 0,1 C 47 % 70 % 3 % 1015,6 hPa 0,0 l/m 2,4 km/h (1 Bft) 0,00 h 0,00 h 2,5 km/h (1 Bft)
09.10.2012 19:00 19,5 C 10,3 C 0,0 UV-I 0,0 C 50 % 77 % 0 % 1015,9 hPa 0,0 l/m 0,0 km/h (0 Bft) 0,00 h 0,00 h 0,0 km/h (0 Bft)
09.10.2012 20:00 19,0 C 9,3 C 0,0 UV-I 0,0 C 51 % 82 % 0 % 1016,0 hPa 0,0 l/m 0,0 km/h (0 Bft) 0,00 h 0,00 h 0,0 km/h (0 Bft)
09.10.2012 21:00 18,7 C 7,5 C 0,0 UV-I 0,0 C 52 % 86 % 0 % 1016,1 hPa 0,0 l/m 0,0 km/h (0 Bft) 0,00 h 0,00 h 0,0 km/h (0 Bft)
09.10.2012 22:00 18,4 C 6,4 C 0,0 UV-I 0,0 C 52 % 89 % 0 % 1016,2 hPa 0,0 l/m 0,0 km/h (0 Bft) 0,00 h 0,00 h 0,0 km/h (0 Bft)
09.10.2012 23:00 18,2 C 5,5 C 0,0 UV-I 0,0 C 52 % 91 % 0 % 1016,4 hPa 0,0 l/m 0,0 km/h (0 Bft) 0,00 h 0,00 h 0,0 km/h (0 Bft)
10.10.2012 00:00 18,1 C 4,9 C 0,0 UV-I 0,0 C 52 % 92 % 0 % 1016,3 hPa 0,0 l/m 0,0 km/h (0 Bft) 0,00 h 0,03 h 0,0 km/h (0 Bft)
10.10.2012 01:00 18,0 C 4,4 C 0,0 UV-I 0,0 C 51 % 93 % 0 % 1016,1 hPa 0,0 l/m 0,0 km/h (0 Bft) 0,00 h 0,00 h 0,0 km/h (0 Bft)
10.10.2012 02:00 17,8 C 4,1 C 0,0 UV-I 0,0 C 51 % 94 % 0 % 1016,2 hPa 0,0 l/m 0,0 km/h (0 Bft) 0,00 h 0,00 h 0,0 km/h (0 Bft)
10.10.2012 03:00 17,7 C 3,8 C 0,0 UV-I 0,0 C 51 % 95 % 0 % 1016,0 hPa 0,0 l/m 0,0 km/h (0 Bft) 0,00 h 0,00 h 0,0 km/h (0 Bft)
10.10.2012 04:00 17,6 C 3,6 C 0,0 UV-I 0,0 C 51 % 95 % 0 % 1015,8 hPa 0,0 l/m 0,0 km/h (0 Bft) 0,00 h 0,00 h 0,0 km/h (0 Bft)
10.10.2012 05:00 17,6 C 3,3 C 0,0 UV-I 0,0 C 50 % 95 % 0 % 1015,6 hPa 0,0 l/m 0,0 km/h (0 Bft) 0,00 h 0,00 h 0,0 km/h (0 Bft)
10.10.2012 06:00 17,5 C 3,2 C 0,0 UV-I 0,0 C 50 % 96 % 0 % 1015,2 hPa 0,0 l/m 0,0 km/h (0 Bft) 0,00 h 0,00 h 0,0 km/h (0 Bft)
10.10.2012 07:00 17,3 C 2,9 C 0,0 UV-I 0,0 C 50 % 96 % 0 % 1015,2 hPa 0,0 l/m 0,0 km/h (0 Bft) 0,00 h 0,03 h 0,0 km/h (0 Bft)
10.10.2012 08:00 17,3 C 3,3 C 0,0 UV-I 0,0 C 50 % 97 % 0 % 1015,4 hPa 0,0 l/m 0,1 km/h (0 Bft) 0,00 h 0,00 h 0,1 km/h (0 Bft)
10.10.2012 09:00 17,3 C 4,6 C 0,0 UV-I 2,7 C 50 % 98 % 69 % 1015,6 hPa 0,0 l/m 0,6 km/h (0 Bft) 0,67 h 0,00 h 1,1 km/h (1 Bft)
10.10.2012 10:00 17,5 C 6,3 C 0,3 UV-I 7,1 C 51 % 98 % 100 % 1015,9 hPa 0,0 l/m 0,7 km/h (0 Bft) 0,80 h 0,00 h 1,9 km/h (1 Bft)
10.10.2012 11:00 17,7 C 9,2 C 1,4 UV-I 9,5 C 51 % 97 % 100 % 1015,9 hPa 0,0 l/m 1,2 km/h (1 Bft) 1,00 h 0,00 h 2,7 km/h (1 Bft)
10.10.2012 12:00 18,0 C 11,9 C 2,6 UV-I 8,9 C 51 % 87 % 100 % 1015,8 hPa 0,0 l/m 2,0 km/h (1 Bft) 1,00 h 0,00 h 3,6 km/h (1 Bft)
10.10.2012 13:00 18,6 C 12,5 C 1,3 UV-I 4,6 C 50 % 70 % 84 % 1015,6 hPa 0,0 l/m 4,1 km/h (1 Bft) 0,63 h 0,00 h 5,6 km/h (1 Bft)
10.10.2012 14:00 19,2 C 12,9 C 1,7 UV-I 4,8 C 49 % 66 % 87 % 1015,3 hPa 0,0 l/m 2,1 km/h (1 Bft) 0,60 h 0,00 h 3,5 km/h (1 Bft)
10.10.2012 15:00 20,3 C 12,9 C 0,7 UV-I 2,6 C 46 % 65 % 69 % 1015,3 hPa 0,0 l/m 4,2 km/h (1 Bft) 0,33 h 0,00 h 5,2 km/h (1 Bft)
10.10.2012 16:00 21,1 C 13,8 C 0,5 UV-I 3,9 C 44 % 63 % 77 % 1015,2 hPa 0,0 l/m 0,9 km/h (0 Bft) 0,60 h 0,00 h 0,9 km/h (0 Bft)
10.10.2012 17:00 20,6 C 12,5 C 0,0 UV-I 0,3 C 44 % 67 % 10 % 1014,9 hPa 0,0 l/m 0,1 km/h (0 Bft) 0,00 h 0,00 h 0,3 km/h (0 Bft)
10.10.2012 18:00 19,5 C 11,3 C 0,0 UV-I 0,0 C 47 % 73 % 0 % 1015,0 hPa 0,0 l/m 0,0 km/h (0 Bft) 0,00 h 0,00 h 0,0 km/h (0 Bft)
10.10.2012 19:00 18,8 C 10,0 C 0,0 UV-I 0,0 C 49 % 80 % 0 % 1015,2 hPa 0,0 l/m 0,0 km/h (0 Bft) 0,00 h 0,00 h 0,0 km/h (0 Bft)
10.10.2012 20:00 18,5 C 9,1 C 0,0 UV-I 0,0 C 51 % 84 % 0 % 1015,3 hPa 0,0 l/m 0,0 km/h (0 Bft) 0,00 h 0,00 h 0,0 km/h (0 Bft)
10.10.2012 21:00 18,2 C 7,4 C 0,0 UV-I 0,0 C 51 % 87 % 0 % 1015,3 hPa 0,0 l/m 0,2 km/h (0 Bft) 0,00 h 0,03 h 0,3 km/h (0 Bft)
10.10.2012 22:00 18,0 C 6,0 C 0,0 UV-I 0,0 C 51 % 90 % 0 % 1015,4 hPa 0,0 l/m 0,1 km/h (0 Bft) 0,00 h 0,00 h 0,0 km/h (0 Bft)
10.10.2012 23:00 17,8 C 4,9 C 0,0 UV-I 0,0 C 51 % 91 % 0 % 1015,3 hPa 0,0 l/m 0,0 km/h (0 Bft) 0,00 h 0,00 h 0,0 km/h (0 Bft)
11.10.2012 00:00 17,6 C 4,2 C 0,0 UV-I 0,0 C 50 % 92 % 0 % 1015,0 hPa 0,0 l/m 0,0 km/h (0 Bft) 0,00 h 0,03 h 0,0 km/h (0 Bft)
11.10.2012 01:00 17,5 C 3,5 C 0,0 UV-I 0,0 C 50 % 93 % 0 % 1014,9 hPa 0,0 l/m 0,0 km/h (0 Bft) 0,00 h 0,00 h 0,0 km/h (0 Bft)
11.10.2012 02:00 17,4 C 3,1 C 0,0 UV-I 0,0 C 50 % 94 % 0 % 1014,5 hPa 0,0 l/m 0,0 km/h (0 Bft) 0,00 h 0,03 h 0,0 km/h (0 Bft)
11.10.2012 03:00 17,2 C 3,0 C 0,0 UV-I 0,0 C 50 % 94 % 0 % 1014,1 hPa 0,0 l/m 0,0 km/h (0 Bft) 0,00 h 0,03 h 0,0 km/h (0 Bft)
11.10.2012 04:00 17,2 C 3,5 C 0,0 UV-I 0,0 C 50 % 96 % 0 % 1013,6 hPa 0,0 l/m 0,6 km/h (0 Bft) 0,00 h 0,07 h 1,6 km/h (1 Bft)
11.10.2012 05:00 17,2 C 3,6 C 0,0 UV-I 0,0 C 50 % 96 % 0 % 1013,4 hPa 0,0 l/m 0,8 km/h (0 Bft) 0,00 h 0,00 h 1,4 km/h (1 Bft)
11.10.2012 06:00 17,1 C 3,6 C 0,0 UV-I 0,0 C 49 % 96 % 0 % 1013,2 hPa 0,0 l/m 1,6 km/h (1 Bft) 0,00 h 0,00 h 3,9 km/h (1 Bft)
11.10.2012 07:00 17,0 C 3,8 C 0,0 UV-I 0,0 C 49 % 96 % 0 % 1012,7 hPa 0,0 l/m 2,7 km/h (1 Bft) 0,00 h 0,00 h 5,3 km/h (1 Bft)
11.10.2012 08:00 16,9 C 4,0 C 0,0 UV-I 0,0 C 49 % 96 % 0 % 1012,6 hPa 0,0 l/m 2,5 km/h (1 Bft) 0,00 h 0,00 h 5,9 km/h (2 Bft)
11.10.2012 09:00 17,0 C 5,3 C 0,1 UV-I 3,2 C 49 % 96 % 67 % 1012,1 hPa 0,0 l/m 4,1 km/h (1 Bft) 0,67 h 0,00 h 7,2 km/h (2 Bft)
11.10.2012 10:00 17,1 C 7,5 C 0,7 UV-I 6,5 C 49 % 92 % 100 % 1012,0 hPa 0,0 l/m 7,1 km/h (2 Bft) 1,00 h 0,00 h 10,6 km/h (2 Bft)
11.10.2012 11:00 17,2 C 9,9 C 1,4 UV-I 6,6 C 49 % 83 % 100 % 1011,5 hPa 0,0 l/m 8,1 km/h (2 Bft) 1,00 h 0,00 h 11,5 km/h (2 Bft)
11.10.2012 12:00 17,5 C 12,2 C 2,8 UV-I 6,0 C 49 % 73 % 100 % 1010,8 hPa 0,0 l/m 9,8 km/h (2 Bft) 1,00 h 0,00 h 15,0 km/h (3 Bft)
11.10.2012 13:00 18,6 C 14,0 C 3,8 UV-I 5,4 C 48 % 66 % 100 % 1010,2 hPa 0,0 l/m 10,4 km/h (2 Bft) 1,00 h 0,00 h 14,1 km/h (3 Bft)
11.10.2012 14:00 20,4 C 15,2 C 3,2 UV-I 5,0 C 45 % 63 % 100 % 1011,3 hPa 0,0 l/m 9,5 km/h (2 Bft) 1,00 h 0,00 h 13,2 km/h (3 Bft)
11.10.2012 15:00 21,7 C 16,0 C 2,5 UV-I 4,7 C 42 % 61 % 100 % 1009,1 hPa 0,0 l/m 8,4 km/h (2 Bft) 1,00 h 0,00 h 13,1 km/h (3 Bft)
11.10.2012 16:00 22,6 C 16,1 C 1,0 UV-I 3,2 C 40 % 61 % 88 % 1007,8 hPa 0,0 l/m 8,9 km/h (2 Bft) 0,77 h 0,00 h 12,1 km/h (2 Bft)
11.10.2012 17:00 22,2 C 14,9 C 0,1 UV-I 1,4 C 41 % 67 % 40 % 1007,1 hPa 0,0 l/m 5,4 km/h (1 Bft) 0,40 h 0,00 h 7,3 km/h (2 Bft)
11.10.2012 18:00 21,2 C 13,5 C 0,0 UV-I 0,0 C 42 % 74 % 0 % 1006,9 hPa 0,0 l/m 4,1 km/h (1 Bft) 0,00 h 0,00 h 6,3 km/h (2 Bft)
11.10.2012 19:00 20,1 C 12,6 C 0,0 UV-I 0,0 C 45 % 78 % 0 % 1006,7 hPa 0,0 l/m 5,5 km/h (1 Bft) 0,00 h 0,00 h 8,6 km/h (2 Bft)
11.10.2012 20:00 19,4 C 12,1 C 0,0 UV-I 0,0 C 48 % 81 % 0 % 1006,3 hPa 0,0 l/m 8,2 km/h (2 Bft) 0,00 h 0,00 h 12,0 km/h (2 Bft)
11.10.2012 21:00 19,1 C 11,8 C 0,0 UV-I 0,0 C 49 % 82 % 0 % 1006,1 hPa 0,0 l/m 8,3 km/h (2 Bft) 0,00 h 0,00 h 10,2 km/h (2 Bft)
11.10.2012 22:00 18,8 C 11,5 C 0,0 UV-I 0,0 C 50 % 82 % 0 % 1006,1 hPa 0,0 l/m 7,9 km/h (2 Bft) 0,00 h 0,00 h 10,1 km/h (2 Bft)
11.10.2012 23:00 18,7 C 11,3 C 0,0 UV-I 0,0 C 50 % 84 % 0 % 1006,1 hPa 0,0 l/m 9,1 km/h (2 Bft) 0,00 h 0,00 h 12,5 km/h (3 Bft)
12.10.2012 00:00 18,6 C 11,5 C 0,0 UV-I 0,0 C 51 % 84 % 0 % 1005,8 hPa 0,0 l/m 8,4 km/h (2 Bft) 0,00 h 0,00 h 11,4 km/h (2 Bft)
12.10.2012 01:00 18,6 C 11,3 C 0,0 UV-I 0,0 C 52 % 86 % 0 % 1005,2 hPa 0,5 l/m 8,1 km/h (2 Bft) 0,00 h 0,37 h 11,2 km/h (2 Bft)
12.10.2012 02:00 18,5 C 10,8 C 0,0 UV-I 0,0 C 53 % 90 % 0 % 1004,8 hPa 0,0 l/m 6,0 km/h (2 Bft) 0,00 h 0,00 h 8,6 km/h (2 Bft)
12.10.2012 03:00 18,4 C 10,8 C 0,0 UV-I 0,0 C 54 % 92 % 0 % 1004,2 hPa 0,0 l/m 7,3 km/h (2 Bft) 0,00 h 0,00 h 11,3 km/h (2 Bft)
12.10.2012 04:00 18,4 C 10,8 C 0,0 UV-I 0,0 C 54 % 92 % 0 % 1003,5 hPa 0,0 l/m 9,0 km/h (2 Bft) 0,00 h 0,00 h 12,3 km/h (3 Bft)
12.10.2012 05:00 18,4 C 10,8 C 0,0 UV-I 0,0 C 55 % 93 % 0 % 1003,1 hPa 0,1 l/m 9,5 km/h (2 Bft) 0,00 h 0,37 h 12,9 km/h (3 Bft)
12.10.2012 06:00 18,3 C 10,7 C 0,0 UV-I 0,0 C 56 % 95 % 0 % 1002,6 hPa 1,0 l/m 8,6 km/h (2 Bft) 0,00 h 0,47 h 11,5 km/h (2 Bft)
12.10.2012 07:00 18,3 C 10,6 C 0,0 UV-I 0,0 C 57 % 96 % 0 % 1002,6 hPa 0,0 l/m 8,4 km/h (2 Bft) 0,00 h 0,00 h 11,2 km/h (2 Bft)
12.10.2012 08:00 18,3 C 10,8 C 0,0 UV-I 0,0 C 57 % 96 % 0 % 1002,5 hPa 3,1 l/m 7,0 km/h (2 Bft) 0,00 h 0,63 h 9,9 km/h (2 Bft)
12.10.2012 09:00 18,3 C 11,0 C 0,0 UV-I 0,0 C 58 % 97 % 0 % 1002,7 hPa 4,2 l/m 4,5 km/h (1 Bft) 0,00 h 1,00 h 7,2 km/h (2 Bft)
12.10.2012 10:00 18,4 C 11,3 C 0,0 UV-I 0,0 C 59 % 97 % 0 % 1003,6 hPa 2,0 l/m 1,0 km/h (0 Bft) 0,00 h 0,73 h 0,8 km/h (0 Bft)
12.10.2012 11:00 18,6 C 12,9 C 0,1 UV-I 0,4 C 60 % 98 % 11 % 1004,1 hPa 0,5 l/m 1,7 km/h (1 Bft) 0,00 h 0,13 h 3,5 km/h (1 Bft)
12.10.2012 12:00 19,0 C 13,8 C 0,7 UV-I 1,2 C 60 % 97 % 33 % 1004,7 hPa 0,0 l/m 5,9 km/h (2 Bft) 0,00 h 0,00 h 10,3 km/h (2 Bft)
12.10.2012 13:00 19,5 C 14,1 C 0,4 UV-I 1,3 C 59 % 93 % 36 % 1005,2 hPa 0,0 l/m 5,9 km/h (2 Bft) 0,00 h 0,00 h 10,6 km/h (2 Bft)
12.10.2012 14:00 20,0 C 14,9 C 1,0 UV-I 2,3 C 57 % 85 % 67 % 1005,7 hPa 0,0 l/m 6,8 km/h (2 Bft) 0,17 h 0,00 h 9,5 km/h (2 Bft)
12.10.2012 15:00 20,5 C 15,0 C 0,6 UV-I 1,6 C 53 % 75 % 45 % 1006,0 hPa 0,0 l/m 7,6 km/h (2 Bft) 0,03 h 0,00 h 11,0 km/h (2 Bft)
12.10.2012 16:00 21,2 C 15,1 C 0,7 UV-I 2,8 C 51 % 71 % 77 % 1005,7 hPa 0,0 l/m 9,0 km/h (2 Bft) 0,50 h 0,03 h 13,0 km/h (3 Bft)
12.10.2012 17:00 21,4 C 13,8 C 0,0 UV-I 0,2 C 48 % 74 % 6 % 1007,0 hPa 0,1 l/m 9,5 km/h (2 Bft) 0,00 h 0,13 h 12,6 km/h (3 Bft)
12.10.2012 18:00 20,4 C 12,7 C 0,0 UV-I 0,0 C 48 % 78 % 0 % 1008,1 hPa 0,0 l/m 8,1 km/h (2 Bft) 0,00 h 0,00 h 10,3 km/h (2 Bft)
12.10.2012 19:00 19,6 C 12,1 C 0,0 UV-I 0,0 C 50 % 80 % 0 % 1009,0 hPa 0,0 l/m 3,1 km/h (1 Bft) 0,00 h 0,00 h 4,7 km/h (1 Bft)
12.10.2012 20:00 19,1 C 11,3 C 0,0 UV-I 0,0 C 50 % 78 % 0 % 1009,9 hPa 0,0 l/m 4,3 km/h (1 Bft) 0,00 h 0,00 h 5,8 km/h (2 Bft)
12.10.2012 21:00 18,7 C 10,4 C 0,0 UV-I 0,0 C 49 % 77 % 0 % 1010,3 hPa 0,0 l/m 3,4 km/h (1 Bft) 0,00 h 0,00 h 4,4 km/h (1 Bft)
12.10.2012 22:00 18,4 C 9,9 C 0,0 UV-I 0,0 C 50 % 80 % 0 % 1010,7 hPa 0,0 l/m 3,3 km/h (1 Bft) 0,00 h 0,00 h 3,9 km/h (1 Bft)
12.10.2012 23:00 18,2 C 9,4 C 0,0 UV-I 0,0 C 51 % 84 % 0 % 1011,1 hPa 0,0 l/m 1,7 km/h (1 Bft) 0,00 h 0,00 h 2,8 km/h (1 Bft)
13.10.2012 00:00 18,2 C 9,0 C 0,0 UV-I 0,0 C 51 % 86 % 0 % 1011,1 hPa 0,0 l/m 3,4 km/h (1 Bft) 0,00 h 0,00 h 5,5 km/h (1 Bft)
13.10.2012 01:00 18,0 C 8,7 C 0,0 UV-I 0,0 C 52 % 88 % 0 % 1011,2 hPa 0,0 l/m 2,7 km/h (1 Bft) 0,00 h 0,00 h 4,6 km/h (1 Bft)
13.10.2012 02:00 18,0 C 8,6 C 0,0 UV-I 0,0 C 52 % 88 % 0 % 1011,5 hPa 0,0 l/m 2,2 km/h (1 Bft) 0,00 h 0,00 h 3,3 km/h (1 Bft)
13.10.2012 03:00 17,9 C 8,0 C 0,0 UV-I 0,0 C 52 % 89 % 0 % 1011,6 hPa 0,0 l/m 0,6 km/h (0 Bft) 0,00 h 0,00 h 1,1 km/h (0 Bft)
13.10.2012 04:00 17,8 C 7,1 C 0,0 UV-I 0,0 C 52 % 90 % 0 % 1011,4 hPa 0,0 l/m 1,2 km/h (1 Bft) 0,00 h 0,03 h 2,1 km/h (1 Bft)
13.10.2012 05:00 17,8 C 6,8 C 0,0 UV-I 0,0 C 52 % 92 % 0 % 1010,8 hPa 0,0 l/m 3,5 km/h (1 Bft) 0,00 h 0,00 h 5,4 km/h (1 Bft)
13.10.2012 06:00 17,7 C 7,1 C 0,0 UV-I 0,0 C 52 % 92 % 0 % 1010,1 hPa 0,0 l/m 5,5 km/h (1 Bft) 0,00 h 0,00 h 8,2 km/h (2 Bft)
13.10.2012 07:00 17,7 C 7,6 C 0,0 UV-I 0,0 C 52 % 92 % 0 % 1010,0 hPa 0,0 l/m 5,3 km/h (1 Bft) 0,00 h 0,00 h 7,6 km/h (2 Bft)
13.10.2012 08:00 17,7 C 8,1 C 0,0 UV-I 0,0 C 52 % 92 % 0 % 1009,7 hPa 0,0 l/m 4,8 km/h (1 Bft) 0,00 h 0,07 h 6,0 km/h (2 Bft)
13.10.2012 09:00 17,8 C 8,7 C 0,1 UV-I 0,9 C 53 % 92 % 26 % 1009,6 hPa 0,0 l/m 4,8 km/h (1 Bft) 0,17 h 0,07 h 6,4 km/h (2 Bft)
13.10.2012 10:00 17,9 C 10,3 C 0,1 UV-I 1,1 C 53 % 89 % 31 % 1009,1 hPa 0,0 l/m 6,8 km/h (2 Bft) 0,00 h 0,00 h 9,3 km/h (2 Bft)
13.10.2012 11:00 18,1 C 11,4 C 0,1 UV-I 1,2 C 53 % 86 % 35 % 1008,8 hPa 0,0 l/m 6,6 km/h (2 Bft) 0,00 h 0,00 h 9,8 km/h (2 Bft)
13.10.2012 12:00 18,3 C 12,2 C 0,2 UV-I 0,4 C 53 % 86 % 11 % 1008,4 hPa 0,1 l/m 5,2 km/h (1 Bft) 0,00 h 0,60 h 8,6 km/h (2 Bft)
13.10.2012 13:00 18,6 C 13,1 C 0,4 UV-I 1,3 C 53 % 84 % 38 % 1007,3 hPa 0,0 l/m 7,2 km/h (2 Bft) 0,00 h 0,10 h 10,3 km/h (2 Bft)
13.10.2012 14:00 18,8 C 13,4 C 0,2 UV-I 0,8 C 53 % 81 % 22 % 1006,4 hPa 0,0 l/m 5,5 km/h (1 Bft) 0,00 h 0,17 h 6,2 km/h (2 Bft)
13.10.2012 15:00 18,7 C 13,4 C 0,0 UV-I 0,3 C 53 % 81 % 9 % 1005,8 hPa 0,1 l/m 5,7 km/h (1 Bft) 0,00 h 0,07 h 10,0 km/h (2 Bft)
13.10.2012 16:00 18,6 C 13,4 C 0,0 UV-I 0,1 C 54 % 80 % 2 % 1004,1 hPa 0,0 l/m 7,8 km/h (2 Bft) 0,00 h 0,23 h 11,4 km/h (2 Bft)
13.10.2012 17:00 18,4 C 12,3 C 0,0 UV-I 0,0 C 54 % 83 % 0 % 1003,2 hPa 4,4 l/m 6,2 km/h (2 Bft) 0,00 h 0,73 h 8,5 km/h (2 Bft)
13.10.2012 18:00 18,2 C 9,9 C 0,0 UV-I 0,0 C 56 % 91 % 0 % 1003,4 hPa 4,7 l/m 5,5 km/h (1 Bft) 0,00 h 0,00 h 7,6 km/h (2 Bft)
13.10.2012 19:00 17,9 C 9,1 C 0,0 UV-I 0,0 C 57 % 94 % 0 % 1003,5 hPa 1,6 l/m 4,7 km/h (1 Bft) 0,00 h 0,00 h 6,6 km/h (2 Bft)
13.10.2012 20:00 17,7 C 8,7 C 0,0 UV-I 0,0 C 57 % 95 % 0 % 1003,2 hPa 0,0 l/m 3,7 km/h (1 Bft) 0,00 h 0,00 h 6,3 km/h (2 Bft)
13.10.2012 21:00 17,6 C 8,4 C 0,0 UV-I 0,0 C 56 % 95 % 0 % 1003,2 hPa 0,0 l/m 2,1 km/h (1 Bft) 0,00 h 0,00 h 3,5 km/h (1 Bft)
13.10.2012 22:00 17,6 C 8,4 C 0,0 UV-I 0,0 C 56 % 95 % 0 % 1003,1 hPa 0,0 l/m 3,5 km/h (1 Bft) 0,00 h 0,00 h 6,3 km/h (2 Bft)
13.10.2012 23:00 17,5 C 8,3 C 0,0 UV-I 0,0 C 56 % 95 % 0 % 1002,9 hPa 0,0 l/m 3,6 km/h (1 Bft) 0,00 h 0,00 h 6,0 km/h (2 Bft)
14.10.2012 00:00 17,4 C 7,8 C 0,0 UV-I 0,0 C 55 % 95 % 0 % 1002,7 hPa 0,0 l/m 4,4 km/h (1 Bft) 0,00 h 0,00 h 8,3 km/h (2 Bft)
14.10.2012 01:00 17,3 C 7,4 C 0,0 UV-I 0,0 C 55 % 94 % 0 % 1002,5 hPa 0,0 l/m 3,6 km/h (1 Bft) 0,00 h 0,00 h 5,9 km/h (2 Bft)
14.10.2012 02:00 17,2 C 7,0 C 0,0 UV-I 0,0 C 54 % 94 % 0 % 1002,4 hPa 0,0 l/m 3,6 km/h (1 Bft) 0,00 h 0,00 h 5,5 km/h (1 Bft)
14.10.2012 03:00 17,1 C 6,7 C 0,0 UV-I 0,0 C 54 % 94 % 0 % 1002,3 hPa 0,0 l/m 3,8 km/h (1 Bft) 0,00 h 0,00 h 5,3 km/h (1 Bft)
14.10.2012 04:00 17,1 C 6,7 C 0,0 UV-I 0,0 C 53 % 94 % 0 % 1002,1 hPa 0,0 l/m 3,1 km/h (1 Bft) 0,00 h 0,00 h 5,8 km/h (2 Bft)
14.10.2012 05:00 17,0 C 6,8 C 0,0 UV-I 0,0 C 53 % 94 % 0 % 1002,0 hPa 0,0 l/m 3,6 km/h (1 Bft) 0,00 h 0,00 h 4,5 km/h (1 Bft)
14.10.2012 06:00 17,0 C 6,6 C 0,0 UV-I 0,0 C 53 % 94 % 0 % 1001,9 hPa 0,1 l/m 2,5 km/h (1 Bft) 0,00 h 0,00 h 3,8 km/h (1 Bft)
14.10.2012 07:00 17,0 C 6,4 C 0,0 UV-I 0,0 C 53 % 95 % 0 % 1001,8 hPa 0,0 l/m 2,2 km/h (1 Bft) 0,00 h 0,00 h 3,9 km/h (1 Bft)
14.10.2012 08:00 17,0 C 6,2 C 0,0 UV-I 0,0 C 53 % 95 % 0 % 1001,9 hPa 0,0 l/m 2,2 km/h (1 Bft) 0,00 h 0,00 h 3,5 km/h (1 Bft)
14.10.2012 09:00 17,0 C 6,7 C 0,0 UV-I 1,9 C 53 % 95 % 53 % 1001,7 hPa 0,0 l/m 2,2 km/h (1 Bft) 0,43 h 0,00 h 3,7 km/h (1 Bft)
14.10.2012 10:00 17,0 C 8,4 C 0,3 UV-I 6,0 C 53 % 93 % 97 % 1001,5 hPa 0,0 l/m 5,8 km/h (2 Bft) 1,00 h 0,00 h 8,1 km/h (2 Bft)
14.10.2012 11:00 17,1 C 9,7 C 0,7 UV-I 5,4 C 53 % 88 % 100 % 1001,1 hPa 0,0 l/m 5,3 km/h (1 Bft) 1,00 h 0,00 h 8,3 km/h (2 Bft)
14.10.2012 12:00 17,3 C 9,8 C 0,8 UV-I 2,3 C 52 % 86 % 65 % 1000,7 hPa 0,0 l/m 3,6 km/h (1 Bft) 0,20 h 0,00 h 5,4 km/h (1 Bft)
14.10.2012 13:00 17,6 C 9,9 C 0,5 UV-I 1,8 C 51 % 84 % 52 % 1000,1 hPa 0,0 l/m 3,7 km/h (1 Bft) 0,07 h 0,00 h 5,2 km/h (1 Bft)
14.10.2012 14:00 17,7 C 9,9 C 0,2 UV-I 1,0 C 51 % 83 % 28 % 999,4 hPa 0,0 l/m 3,7 km/h (1 Bft) 0,00 h 0,00 h 4,9 km/h (1 Bft)
14.10.2012 15:00 17,7 C 10,0 C 0,1 UV-I 1,0 C 51 % 82 % 28 % 999,0 hPa 0,0 l/m 3,0 km/h (1 Bft) 0,00 h 0,00 h 3,7 km/h (1 Bft)
14.10.2012 16:00 17,7 C 10,2 C 0,1 UV-I 0,7 C 50 % 81 % 21 % 998,3 hPa 0,0 l/m 1,4 km/h (1 Bft) 0,00 h 0,00 h 1,8 km/h (1 Bft)
14.10.2012 17:00 17,7 C 9,9 C 0,0 UV-I 0,0 C 50 % 82 % 1 % 998,0 hPa 0,0 l/m 0,2 km/h (0 Bft) 0,00 h 0,00 h 0,3 km/h (0 Bft)
14.10.2012 18:00 17,6 C 9,3 C 0,0 UV-I 0,0 C 51 % 84 % 0 % 998,1 hPa 0,0 l/m 0,0 km/h (0 Bft) 0,00 h 0,00 h 0,0 km/h (0 Bft)
14.10.2012 19:00 17,5 C 8,8 C 0,0 UV-I 0,0 C 52 % 86 % 0 % 998,1 hPa 0,0 l/m 0,4 km/h (0 Bft) 0,00 h 0,00 h 0,9 km/h (0 Bft)
14.10.2012 20:00 17,4 C 8,7 C 0,0 UV-I 0,0 C 52 % 87 % 0 % 998,0 hPa 0,0 l/m 0,6 km/h (0 Bft) 0,00 h 0,00 h 1,1 km/h (1 Bft)
14.10.2012 21:00 17,4 C 8,4 C 0,0 UV-I 0,0 C 52 % 86 % 0 % 997,5 hPa 0,0 l/m 0,0 km/h (0 Bft) 0,00 h 0,00 h 0,0 km/h (0 Bft)
14.10.2012 22:00 17,4 C 7,8 C 0,0 UV-I 0,0 C 52 % 88 % 0 % 997,4 hPa 0,0 l/m 0,0 km/h (0 Bft) 0,00 h 0,00 h 0,0 km/h (0 Bft)
14.10.2012 23:00 17,2 C 6,8 C 0,0 UV-I 0,0 C 52 % 89 % 0 % 997,3 hPa 0,0 l/m 0,1 km/h (0 Bft) 0,00 h 0,00 h 0,1 km/h (0 Bft)
Min-Datum _ 11.10.12 10.10.12 08.10.12 08.10.12 11.10.12 11.10.12 08.10.12 14.10.12 - 08.10.12 - - 08.10.12
_ Min-Zeit 07:52 07:30 00:00 00:00 16:10 15:44 00:00 23:46 - 00:00 - - 00:00
Minimum _ 16,9 C 2,8 C 0,0 UV-I 0,0 C 40 % 60 % 0 % 997,1 hPa - 0,0 km/h (0 Bft) - - 0,0 km/h (0 Bft)
Max-Datum _ 11.10.12 11.10.12 08.10.12 10.10.12 12.10.12 08.10.12 08.10.12 08.10.12 13.10.12 11.10.12 08.10.12 08.10.12 12.10.12
_ Max-Zeit 16:28 15:54 12:50 11:42 11:58 09:52 09:20 01:26 18:52 13:32 09:08 07:28 17:50
Maximum _ 22,7 C 16,4 C 4,2 UV-I 10,2 C 61 % 99 % 100 % 1023,7 hPa 4,7 l/m 13,3 km/h
O-NO (3 Bft)
0,03 h 0,03 h 39,8 km/h
S (6 Bft)
Durchschnitt _ 18,4 C 9,3 C 0,3 UV-I 1,1 C 52 % 87 % 22 % 1010,2 hPa #22,6 l/m 3,4 km/h (1 Bft) #27:56 h #6:20 h 5,0 km/h (1 Bft)
© 2012 W. Hausmann